sensor_id;sensor_type;location;lat;lon;timestamp;pressure;altitude;pressure_sealevel;temperature;humidity
17230;BME280;8731;50.364;8.958;2023-05-08T00:04:07;100458.66;;;16.98;71.56
17230;BME280;8731;50.364;8.958;2023-05-08T00:08:30;100455.53;;;17.02;70.93
17230;BME280;8731;50.364;8.958;2023-05-08T00:12:52;100453.63;;;17.00;71.15
17230;BME280;8731;50.364;8.958;2023-05-08T00:17:14;100455.78;;;16.94;71.15
17230;BME280;8731;50.364;8.958;2023-05-08T00:21:38;100454.53;;;16.77;71.28
17230;BME280;8731;50.364;8.958;2023-05-08T00:26:01;100451.88;;;16.87;71.20
17230;BME280;8731;50.364;8.958;2023-05-08T00:30:23;100463.69;;;16.38;76.39
17230;BME280;8731;50.364;8.958;2023-05-08T00:34:46;100463.91;;;16.41;75.79
17230;BME280;8731;50.364;8.958;2023-05-08T00:39:10;100451.41;;;16.57;74.56
17230;BME280;8731;50.364;8.958;2023-05-08T00:43:33;100451.94;;;16.53;73.84
17230;BME280;8731;50.364;8.958;2023-05-08T00:47:56;100459.56;;;16.40;74.62
17230;BME280;8731;50.364;8.958;2023-05-08T00:52:19;100458.31;;;16.47;74.12
17230;BME280;8731;50.364;8.958;2023-05-08T00:56:44;100466.06;;;16.02;77.75
17230;BME280;8731;50.364;8.958;2023-05-08T01:01:07;100463.94;;;16.08;78.15
17230;BME280;8731;50.364;8.958;2023-05-08T01:05:30;100464.34;;;16.36;75.98
17230;BME280;8731;50.364;8.958;2023-05-08T01:09:53;100472.44;;;15.73;81.03
17230;BME280;8731;50.364;8.958;2023-05-08T01:14:19;100459.63;;;15.85;79.90
17230;BME280;8731;50.364;8.958;2023-05-08T01:18:51;100472.53;;;15.96;79.11
17230;BME280;8731;50.364;8.958;2023-05-08T01:23:34;100473.44;;;16.09;77.26
17230;BME280;8731;50.364;8.958;2023-05-08T01:28:35;100476.88;;;15.98;77.71
17230;BME280;8731;50.364;8.958;2023-05-08T01:33:21;100478.13;;;16.03;77.23
17230;BME280;8731;50.364;8.958;2023-05-08T01:37:51;100479.44;;;15.86;77.07
17230;BME280;8731;50.364;8.958;2023-05-08T01:42:23;100472.34;;;15.83;75.59
17230;BME280;8731;50.364;8.958;2023-05-08T01:46:51;100482.56;;;15.93;74.41
17230;BME280;8731;50.364;8.958;2023-05-08T01:51:20;100491.22;;;15.84;74.90
17230;BME280;8731;50.364;8.958;2023-05-08T01:55:46;100494.69;;;15.84;75.30
17230;BME280;8731;50.364;8.958;2023-05-08T02:00:12;100489.84;;;15.65;79.03
17230;BME280;8731;50.364;8.958;2023-05-08T02:04:38;100491.75;;;15.68;79.55
17230;BME280;8731;50.364;8.958;2023-05-08T02:09:06;100487.16;;;15.64;81.59
17230;BME280;8731;50.364;8.958;2023-05-08T02:13:30;100489.41;;;15.71;78.96
17230;BME280;8731;50.364;8.958;2023-05-08T02:17:56;100500.34;;;15.69;78.27
17230;BME280;8731;50.364;8.958;2023-05-08T02:22:20;100503.25;;;15.73;77.59
17230;BME280;8731;50.364;8.958;2023-05-08T02:26:46;100502.69;;;15.55;79.39
17230;BME280;8731;50.364;8.958;2023-05-08T02:31:11;100506.13;;;15.56;78.69
17230;BME280;8731;50.364;8.958;2023-05-08T02:35:35;100512.28;;;15.58;77.89
17230;BME280;8731;50.364;8.958;2023-05-08T02:40:00;100512.06;;;15.55;78.75
17230;BME280;8731;50.364;8.958;2023-05-08T02:44:28;100519.50;;;15.52;78.89
17230;BME280;8731;50.364;8.958;2023-05-08T02:48:56;100522.50;;;15.46;78.64
17230;BME280;8731;50.364;8.958;2023-05-08T02:53:26;100524.06;;;15.44;77.58
17230;BME280;8731;50.364;8.958;2023-05-08T02:58:05;100523.50;;;15.48;77.55
17230;BME280;8731;50.364;8.958;2023-05-08T03:02:37;100521.13;;;15.40;78.02
17230;BME280;8731;50.364;8.958;2023-05-08T03:07:02;100524.72;;;15.42;77.02
17230;BME280;8731;50.364;8.958;2023-05-08T03:11:28;100528.31;;;15.33;78.06
17230;BME280;8731;50.364;8.958;2023-05-08T03:16:00;100531.94;;;14.93;80.99
17230;BME280;8731;50.364;8.958;2023-05-08T03:20:32;100529.16;;;14.80;81.62
17230;BME280;8731;50.364;8.958;2023-05-08T03:24:58;100517.41;;;15.04;79.14
17230;BME280;8731;50.364;8.958;2023-05-08T03:29:24;100526.91;;;15.05;78.90
17230;BME280;8731;50.364;8.958;2023-05-08T03:38:52;100527.84;;;14.95;78.29
17230;BME280;8731;50.364;8.958;2023-05-08T03:43:15;100533.03;;;15.07;77.99
17230;BME280;8731;50.364;8.958;2023-05-08T03:47:40;100527.19;;;14.88;79.41
17230;BME280;8731;50.364;8.958;2023-05-08T03:52:04;100521.94;;;14.96;78.73
17230;BME280;8731;50.364;8.958;2023-05-08T03:56:28;100530.53;;;14.97;78.87
17230;BME280;8731;50.364;8.958;2023-05-08T04:00:58;100534.88;;;14.98;78.44
17230;BME280;8731;50.364;8.958;2023-05-08T04:05:32;100534.13;;;14.89;79.38
17230;BME280;8731;50.364;8.958;2023-05-08T04:10:06;100532.31;;;14.88;80.00
17230;BME280;8731;50.364;8.958;2023-05-08T04:14:40;100545.91;;;14.87;79.92
17230;BME280;8731;50.364;8.958;2023-05-08T04:19:10;100544.97;;;14.54;82.03
17230;BME280;8731;50.364;8.958;2023-05-08T04:23:40;100547.78;;;14.57;81.39
17230;BME280;8731;50.364;8.958;2023-05-08T04:28:05;100540.31;;;14.40;83.29
17230;BME280;8731;50.364;8.958;2023-05-08T04:32:30;100553.03;;;14.59;83.09
17230;BME280;8731;50.364;8.958;2023-05-08T04:36:54;100550.94;;;14.75;81.14
17230;BME280;8731;50.364;8.958;2023-05-08T04:41:17;100552.88;;;14.78;81.17
17230;BME280;8731;50.364;8.958;2023-05-08T04:45:41;100556.31;;;14.78;83.37
17230;BME280;8731;50.364;8.958;2023-05-08T04:50:06;100558.63;;;14.85;82.54
17230;BME280;8731;50.364;8.958;2023-05-08T04:54:29;100557.75;;;14.64;84.95
17230;BME280;8731;50.364;8.958;2023-05-08T04:58:51;100556.50;;;14.49;87.19
17230;BME280;8731;50.364;8.958;2023-05-08T05:03:15;100564.41;;;14.62;86.55
17230;BME280;8731;50.364;8.958;2023-05-08T05:07:38;100575.31;;;14.60;86.41
17230;BME280;8731;50.364;8.958;2023-05-08T05:12:01;100580.81;;;14.74;85.99
17230;BME280;8731;50.364;8.958;2023-05-08T05:16:25;100578.28;;;14.54;88.62
17230;BME280;8731;50.364;8.958;2023-05-08T05:20:47;100583.97;;;14.41;89.78
17230;BME280;8731;50.364;8.958;2023-05-08T05:25:11;100584.16;;;14.73;87.54
17230;BME280;8731;50.364;8.958;2023-05-08T05:29:34;100586.72;;;14.73;88.46
17230;BME280;8731;50.364;8.958;2023-05-08T05:33:56;100587.75;;;14.55;89.60
17230;BME280;8731;50.364;8.958;2023-05-08T05:38:19;100597.22;;;14.66;89.34
17230;BME280;8731;50.364;8.958;2023-05-08T05:42:47;100599.66;;;14.75;87.02
17230;BME280;8731;50.364;8.958;2023-05-08T05:47:11;100609.38;;;14.79;87.94
17230;BME280;8731;50.364;8.958;2023-05-08T05:51:35;100601.91;;;14.41;91.31
17230;BME280;8731;50.364;8.958;2023-05-08T05:55:57;100606.19;;;14.71;90.09
17230;BME280;8731;50.364;8.958;2023-05-08T06:00:21;100608.88;;;14.73;89.96
17230;BME280;8731;50.364;8.958;2023-05-08T06:04:50;100610.78;;;14.65;89.71
17230;BME280;8731;50.364;8.958;2023-05-08T06:09:12;100610.28;;;14.80;88.98
17230;BME280;8731;50.364;8.958;2023-05-08T06:13:35;100609.50;;;14.81;88.54
17230;BME280;8731;50.364;8.958;2023-05-08T06:18:00;100608.88;;;14.83;86.92
17230;BME280;8731;50.364;8.958;2023-05-08T06:22:23;100612.81;;;14.90;86.98
17230;BME280;8731;50.364;8.958;2023-05-08T06:26:46;100610.91;;;14.87;89.23
17230;BME280;8731;50.364;8.958;2023-05-08T06:31:08;100607.31;;;14.95;87.98
17230;BME280;8731;50.364;8.958;2023-05-08T06:35:32;100614.88;;;15.04;86.47
17230;BME280;8731;50.364;8.958;2023-05-08T06:39:54;100615.13;;;15.07;86.63
17230;BME280;8731;50.364;8.958;2023-05-08T06:44:16;100615.03;;;14.95;86.67
17230;BME280;8731;50.364;8.958;2023-05-08T06:48:39;100623.69;;;15.08;86.51
17230;BME280;8731;50.364;8.958;2023-05-08T06:53:02;100627.03;;;15.07;87.33
17230;BME280;8731;50.364;8.958;2023-05-08T06:57:25;100623.69;;;15.18;86.38
17230;BME280;8731;50.364;8.958;2023-05-08T07:01:49;100629.06;;;15.21;85.29
17230;BME280;8731;50.364;8.958;2023-05-08T07:06:11;100627.53;;;15.23;85.46
17230;BME280;8731;50.364;8.958;2023-05-08T07:10:35;100628.97;;;15.09;86.83
17230;BME280;8731;50.364;8.958;2023-05-08T07:14:57;100636.19;;;15.35;86.17
17230;BME280;8731;50.364;8.958;2023-05-08T07:19:20;100632.31;;;14.98;88.37
17230;BME280;8731;50.364;8.958;2023-05-08T07:23:42;100626.31;;;14.97;89.52
17230;BME280;8731;50.364;8.958;2023-05-08T07:28:06;100637.50;;;15.30;87.69
17230;BME280;8731;50.364;8.958;2023-05-08T07:32:29;100636.66;;;15.09;90.24
17230;BME280;8731;50.364;8.958;2023-05-08T07:36:51;100641.31;;;14.72;92.35
17230;BME280;8731;50.364;8.958;2023-05-08T07:41:14;100644.78;;;15.35;88.88
17230;BME280;8731;50.364;8.958;2023-05-08T07:45:37;100646.53;;;15.57;86.74
17230;BME280;8731;50.364;8.958;2023-05-08T07:50:00;100640.75;;;15.07;88.22
17230;BME280;8731;50.364;8.958;2023-05-08T07:54:22;100649.88;;;15.56;86.14
17230;BME280;8731;50.364;8.958;2023-05-08T07:58:45;100647.88;;;15.42;88.13
17230;BME280;8731;50.364;8.958;2023-05-08T08:03:08;100645.88;;;15.17;91.04
17230;BME280;8731;50.364;8.958;2023-05-08T08:07:31;100641.13;;;15.74;87.29
17230;BME280;8731;50.364;8.958;2023-05-08T08:11:53;100645.41;;;15.63;88.52
17230;BME280;8731;50.364;8.958;2023-05-08T08:16:15;100641.59;;;15.80;88.50
17230;BME280;8731;50.364;8.958;2023-05-08T08:20:39;100638.28;;;15.39;91.45
17230;BME280;8731;50.364;8.958;2023-05-08T08:25:01;100637.81;;;16.19;87.00
17230;BME280;8731;50.364;8.958;2023-05-08T08:29:24;100632.34;;;16.26;87.92
17230;BME280;8731;50.364;8.958;2023-05-08T08:33:46;100631.75;;;16.40;86.75
17230;BME280;8731;50.364;8.958;2023-05-08T08:38:10;100628.03;;;16.58;86.57
17230;BME280;8731;50.364;8.958;2023-05-08T08:42:32;100631.75;;;16.74;85.55
17230;BME280;8731;50.364;8.958;2023-05-08T08:46:57;100625.44;;;16.58;83.08
17230;BME280;8731;50.364;8.958;2023-05-08T08:51:24;100623.81;;;16.71;87.00
17230;BME280;8731;50.364;8.958;2023-05-08T08:55:51;100628.34;;;16.30;86.49
17230;BME280;8731;50.364;8.958;2023-05-08T09:00:17;100632.25;;;17.03;85.32
17230;BME280;8731;50.364;8.958;2023-05-08T09:04:41;100634.94;;;16.60;85.42
17230;BME280;8731;50.364;8.958;2023-05-08T09:09:03;100638.75;;;17.22;83.31
17230;BME280;8731;50.364;8.958;2023-05-08T09:13:27;100633.84;;;17.36;82.00
17230;BME280;8731;50.364;8.958;2023-05-08T09:17:50;100646.59;;;17.23;79.58
17230;BME280;8731;50.364;8.958;2023-05-08T09:22:12;100640.69;;;17.12;77.92
17230;BME280;8731;50.364;8.958;2023-05-08T09:26:37;100642.25;;;17.10;78.42
17230;BME280;8731;50.364;8.958;2023-05-08T09:31:02;100645.28;;;17.40;76.09
17230;BME280;8731;50.364;8.958;2023-05-08T09:35:34;100643.00;;;16.86;77.87
17230;BME280;8731;50.364;8.958;2023-05-08T09:40:12;100642.25;;;17.81;76.58
17230;BME280;8731;50.364;8.958;2023-05-08T09:44:42;100641.34;;;17.57;76.19
17230;BME280;8731;50.364;8.958;2023-05-08T09:49:15;100645.81;;;17.83;75.89
17230;BME280;8731;50.364;8.958;2023-05-08T09:53:38;100657.78;;;17.47;76.80
17230;BME280;8731;50.364;8.958;2023-05-08T09:58:01;100650.25;;;17.97;76.51
17230;BME280;8731;50.364;8.958;2023-05-08T10:02:23;100653.81;;;18.22;74.62
17230;BME280;8731;50.364;8.958;2023-05-08T10:06:56;100664.88;;;18.21;75.12
17230;BME280;8731;50.364;8.958;2023-05-08T10:11:19;100668.47;;;17.75;74.94
17230;BME280;8731;50.364;8.958;2023-05-08T10:15:42;100654.63;;;18.34;73.54
17230;BME280;8731;50.364;8.958;2023-05-08T10:20:06;100655.75;;;18.38;74.35
17230;BME280;8731;50.364;8.958;2023-05-08T10:24:32;100655.72;;;18.50;74.22
17230;BME280;8731;50.364;8.958;2023-05-08T10:28:56;100649.19;;;18.55;72.95
17230;BME280;8731;50.364;8.958;2023-05-08T10:33:20;100644.31;;;18.71;72.16
17230;BME280;8731;50.364;8.958;2023-05-08T10:37:51;100651.31;;;18.98;72.16
17230;BME280;8731;50.364;8.958;2023-05-08T10:42:17;100646.66;;;19.06;71.92
17230;BME280;8731;50.364;8.958;2023-05-08T10:46:44;100638.56;;;18.75;72.51
17230;BME280;8731;50.364;8.958;2023-05-08T10:51:18;100639.22;;;19.11;70.99
17230;BME280;8731;50.364;8.958;2023-05-08T10:55:49;100636.34;;;19.06;70.83
17230;BME280;8731;50.364;8.958;2023-05-08T11:00:14;100632.66;;;19.16;69.95
17230;BME280;8731;50.364;8.958;2023-05-08T11:04:37;100622.00;;;18.72;69.38
17230;BME280;8731;50.364;8.958;2023-05-08T11:09:00;100624.88;;;18.89;70.28
17230;BME280;8731;50.364;8.958;2023-05-08T11:13:26;100618.19;;;18.66;69.87
17230;BME280;8731;50.364;8.958;2023-05-08T11:17:53;100609.94;;;19.63;68.38
17230;BME280;8731;50.364;8.958;2023-05-08T11:22:21;100607.16;;;19.60;67.81
17230;BME280;8731;50.364;8.958;2023-05-08T11:26:48;100601.13;;;20.01;67.66
17230;BME280;8731;50.364;8.958;2023-05-08T11:31:10;100602.97;;;20.16;67.56
17230;BME280;8731;50.364;8.958;2023-05-08T11:35:45;100600.41;;;20.03;67.04
17230;BME280;8731;50.364;8.958;2023-05-08T11:40:49;100588.25;;;20.30;66.72
17230;BME280;8731;50.364;8.958;2023-05-08T11:45:18;100590.91;;;20.45;66.11
17230;BME280;8731;50.364;8.958;2023-05-08T11:49:41;100586.84;;;19.92;64.42
17230;BME280;8731;50.364;8.958;2023-05-08T11:54:05;100586.81;;;20.20;63.82
17230;BME280;8731;50.364;8.958;2023-05-08T11:58:29;100596.91;;;20.16;63.68
17230;BME280;8731;50.364;8.958;2023-05-08T12:02:51;100589.81;;;19.85;62.52
17230;BME280;8731;50.364;8.958;2023-05-08T12:07:14;100592.22;;;20.10;64.56
17230;BME280;8731;50.364;8.958;2023-05-08T12:11:39;100597.56;;;19.85;64.00
17230;BME280;8731;50.364;8.958;2023-05-08T12:16:04;100589.59;;;20.23;63.12
17230;BME280;8731;50.364;8.958;2023-05-08T12:20:27;100590.41;;;19.81;62.65
17230;BME280;8731;50.364;8.958;2023-05-08T12:24:50;100587.31;;;19.87;63.27
17230;BME280;8731;50.364;8.958;2023-05-08T12:29:17;100595.50;;;20.08;63.21
17230;BME280;8731;50.364;8.958;2023-05-08T12:33:40;100592.72;;;20.75;61.91
17230;BME280;8731;50.364;8.958;2023-05-08T12:38:05;100592.16;;;20.51;60.88
17230;BME280;8731;50.364;8.958;2023-05-08T12:42:41;100588.13;;;20.84;60.24
17230;BME280;8731;50.364;8.958;2023-05-08T12:47:05;100582.19;;;21.31;61.12
17230;BME280;8731;50.364;8.958;2023-05-08T12:51:29;100584.31;;;21.38;61.20
17230;BME280;8731;50.364;8.958;2023-05-08T12:55:52;100578.44;;;21.26;60.80
17230;BME280;8731;50.364;8.958;2023-05-08T13:00:17;100578.81;;;21.32;59.87
17230;BME280;8731;50.364;8.958;2023-05-08T13:04:42;100579.63;;;20.87;60.49
17230;BME280;8731;50.364;8.958;2023-05-08T13:09:04;100579.09;;;21.53;59.86
17230;BME280;8731;50.364;8.958;2023-05-08T13:13:29;100574.13;;;21.41;58.27
17230;BME280;8731;50.364;8.958;2023-05-08T13:17:53;100577.19;;;21.34;57.75
17230;BME280;8731;50.364;8.958;2023-05-08T13:22:16;100576.16;;;21.47;58.66
17230;BME280;8731;50.364;8.958;2023-05-08T13:26:42;100569.28;;;21.48;58.05
17230;BME280;8731;50.364;8.958;2023-05-08T13:31:05;100566.56;;;21.61;57.29
17230;BME280;8731;50.364;8.958;2023-05-08T13:35:28;100564.41;;;21.85;57.85
17230;BME280;8731;50.364;8.958;2023-05-08T13:39:52;100553.41;;;21.41;57.94
17230;BME280;8731;50.364;8.958;2023-05-08T13:44:14;100549.00;;;20.95;58.54
17230;BME280;8731;50.364;8.958;2023-05-08T13:48:36;100545.66;;;21.58;58.12
17230;BME280;8731;50.364;8.958;2023-05-08T13:52:59;100542.19;;;21.57;58.91
17230;BME280;8731;50.364;8.958;2023-05-08T13:57:22;100534.28;;;21.39;58.81
17230;BME280;8731;50.364;8.958;2023-05-08T14:01:45;100537.44;;;21.81;60.05
17230;BME280;8731;50.364;8.958;2023-05-08T14:06:07;100545.03;;;21.01;61.02
17230;BME280;8731;50.364;8.958;2023-05-08T14:10:29;100536.03;;;21.71;59.53
17230;BME280;8731;50.364;8.958;2023-05-08T14:14:53;100533.41;;;21.39;59.60
17230;BME280;8731;50.364;8.958;2023-05-08T14:19:16;100530.13;;;21.74;59.65
17230;BME280;8731;50.364;8.958;2023-05-08T14:23:38;100529.59;;;21.49;60.36
17230;BME280;8731;50.364;8.958;2023-05-08T14:28:01;100524.91;;;21.41;61.75
17230;BME280;8731;50.364;8.958;2023-05-08T14:32:34;100521.09;;;21.35;61.78
17230;BME280;8731;50.364;8.958;2023-05-08T14:37:00;100515.03;;;21.51;60.44
17230;BME280;8731;50.364;8.958;2023-05-08T14:41:26;100514.88;;;21.02;60.75
17230;BME280;8731;50.364;8.958;2023-05-08T14:45:49;100510.56;;;21.32;60.69
17230;BME280;8731;50.364;8.958;2023-05-08T14:50:12;100505.38;;;21.48;60.35
17230;BME280;8731;50.364;8.958;2023-05-08T14:54:35;100507.25;;;21.99;61.08
17230;BME280;8731;50.364;8.958;2023-05-08T14:58:57;100498.69;;;21.84;61.33
17230;BME280;8731;50.364;8.958;2023-05-08T15:03:19;100488.97;;;21.80;60.49
17230;BME280;8731;50.364;8.958;2023-05-08T15:07:43;100489.47;;;21.26;60.98
17230;BME280;8731;50.364;8.958;2023-05-08T15:12:05;100486.63;;;22.01;60.12
17230;BME280;8731;50.364;8.958;2023-05-08T15:16:28;100484.69;;;21.81;60.05
17230;BME280;8731;50.364;8.958;2023-05-08T15:20:50;100485.31;;;21.76;60.93
17230;BME280;8731;50.364;8.958;2023-05-08T15:25:24;100475.94;;;21.62;61.64
17230;BME280;8731;50.364;8.958;2023-05-08T15:29:49;100477.13;;;21.69;60.70
17230;BME280;8731;50.364;8.958;2023-05-08T15:34:12;100474.63;;;21.70;60.88
17230;BME280;8731;50.364;8.958;2023-05-08T15:38:34;100475.84;;;21.61;61.14
17230;BME280;8731;50.364;8.958;2023-05-08T15:42:58;100469.13;;;21.64;61.51
17230;BME280;8731;50.364;8.958;2023-05-08T15:47:21;100477.63;;;21.62;61.20
17230;BME280;8731;50.364;8.958;2023-05-08T15:51:43;100469.78;;;21.60;61.82
17230;BME280;8731;50.364;8.958;2023-05-08T15:56:06;100473.09;;;21.58;62.02
17230;BME280;8731;50.364;8.958;2023-05-08T16:00:29;100478.91;;;21.70;61.45
17230;BME280;8731;50.364;8.958;2023-05-08T16:04:52;100471.88;;;21.20;62.58
17230;BME280;8731;50.364;8.958;2023-05-08T16:09:15;100479.91;;;21.56;62.00
17230;BME280;8731;50.364;8.958;2023-05-08T16:13:40;100489.47;;;21.57;62.68
17230;BME280;8731;50.364;8.958;2023-05-08T16:18:04;100493.00;;;21.42;63.28
17230;BME280;8731;50.364;8.958;2023-05-08T16:22:27;100493.41;;;21.34;63.53
17230;BME280;8731;50.364;8.958;2023-05-08T16:26:50;100490.16;;;21.23;64.70
17230;BME280;8731;50.364;8.958;2023-05-08T16:31:13;100476.56;;;21.42;64.34
17230;BME280;8731;50.364;8.958;2023-05-08T16:35:38;100472.03;;;21.23;64.31
17230;BME280;8731;50.364;8.958;2023-05-08T16:40:00;100480.19;;;21.14;64.03
17230;BME280;8731;50.364;8.958;2023-05-08T16:44:23;100479.06;;;21.09;65.27
17230;BME280;8731;50.364;8.958;2023-05-08T16:48:45;100481.84;;;20.98;65.08
17230;BME280;8731;50.364;8.958;2023-05-08T16:53:09;100476.09;;;21.03;65.93
17230;BME280;8731;50.364;8.958;2023-05-08T16:57:32;100481.28;;;21.03;65.91
17230;BME280;8731;50.364;8.958;2023-05-08T17:01:57;100473.59;;;21.05;66.43
17230;BME280;8731;50.364;8.958;2023-05-08T17:06:20;100473.09;;;20.96;67.18
17230;BME280;8731;50.364;8.958;2023-05-08T17:10:44;100480.13;;;20.82;67.90
17230;BME280;8731;50.364;8.958;2023-05-08T17:15:07;100486.19;;;20.82;68.26
17230;BME280;8731;50.364;8.958;2023-05-08T17:19:30;100479.69;;;20.60;68.76
17230;BME280;8731;50.364;8.958;2023-05-08T17:23:52;100482.06;;;20.57;68.77
17230;BME280;8731;50.364;8.958;2023-05-08T17:28:16;100487.44;;;20.45;69.82
17230;BME280;8731;50.364;8.958;2023-05-08T17:32:38;100487.13;;;20.26;70.18
17230;BME280;8731;50.364;8.958;2023-05-08T17:37:01;100497.91;;;20.33;69.52
17230;BME280;8731;50.364;8.958;2023-05-08T17:41:23;100502.03;;;20.15;71.20
17230;BME280;8731;50.364;8.958;2023-05-08T17:45:47;100489.72;;;20.26;71.41
17230;BME280;8731;50.364;8.958;2023-05-08T17:50:10;100490.94;;;20.03;72.33
17230;BME280;8731;50.364;8.958;2023-05-08T17:54:32;100494.59;;;20.06;71.09
17230;BME280;8731;50.364;8.958;2023-05-08T17:58:55;100488.25;;;20.01;71.93
17230;BME280;8731;50.364;8.958;2023-05-08T18:03:19;100495.13;;;20.01;73.31
17230;BME280;8731;50.364;8.958;2023-05-08T18:07:41;100499.84;;;19.93;73.77
17230;BME280;8731;50.364;8.958;2023-05-08T18:12:05;100498.69;;;19.88;74.00
17230;BME280;8731;50.364;8.958;2023-05-08T18:16:28;100497.72;;;19.73;74.86
17230;BME280;8731;50.364;8.958;2023-05-08T18:20:52;100491.09;;;19.63;73.68
17230;BME280;8731;50.364;8.958;2023-05-08T18:25:16;100500.69;;;19.79;73.97
17230;BME280;8731;50.364;8.958;2023-05-08T18:29:39;100503.72;;;19.58;73.51
17230;BME280;8731;50.364;8.958;2023-05-08T18:34:01;100500.97;;;19.55;73.39
17230;BME280;8731;50.364;8.958;2023-05-08T18:38:25;100502.66;;;19.42;73.71
17230;BME280;8731;50.364;8.958;2023-05-08T18:42:48;100505.16;;;19.40;73.33
17230;BME280;8731;50.364;8.958;2023-05-08T18:47:13;100505.91;;;19.39;72.94
17230;BME280;8731;50.364;8.958;2023-05-08T18:51:38;100506.84;;;19.26;73.83
17230;BME280;8731;50.364;8.958;2023-05-08T18:56:05;100506.16;;;19.29;73.04
17230;BME280;8731;50.364;8.958;2023-05-08T19:00:37;100510.53;;;19.30;73.07
17230;BME280;8731;50.364;8.958;2023-05-08T19:05:10;100517.00;;;19.23;73.30
17230;BME280;8731;50.364;8.958;2023-05-08T19:09:42;100519.28;;;19.19;73.58
17230;BME280;8731;50.364;8.958;2023-05-08T19:14:06;100509.25;;;19.10;73.07
17230;BME280;8731;50.364;8.958;2023-05-08T19:18:30;100511.16;;;18.99;73.71
17230;BME280;8731;50.364;8.958;2023-05-08T19:22:56;100517.13;;;18.98;73.72
17230;BME280;8731;50.364;8.958;2023-05-08T19:27:20;100513.13;;;18.90;73.91
17230;BME280;8731;50.364;8.958;2023-05-08T19:31:46;100516.50;;;18.76;75.29
17230;BME280;8731;50.364;8.958;2023-05-08T19:36:10;100520.97;;;18.40;78.10
17230;BME280;8731;50.364;8.958;2023-05-08T19:40:33;100522.84;;;18.68;76.17
17230;BME280;8731;50.364;8.958;2023-05-08T19:44:56;100526.97;;;18.53;76.53
17230;BME280;8731;50.364;8.958;2023-05-08T19:49:23;100520.22;;;18.55;76.31
17230;BME280;8731;50.364;8.958;2023-05-08T19:53:46;100517.38;;;18.25;79.00
17230;BME280;8731;50.364;8.958;2023-05-08T19:58:09;100520.63;;;17.98;81.25
17230;BME280;8731;50.364;8.958;2023-05-08T20:02:32;100513.59;;;17.95;80.78
17230;BME280;8731;50.364;8.958;2023-05-08T20:06:56;100502.19;;;17.92;80.69
17230;BME280;8731;50.364;8.958;2023-05-08T20:11:19;100511.19;;;18.10;78.95
17230;BME280;8731;50.364;8.958;2023-05-08T20:15:42;100515.16;;;18.18;78.68
17230;BME280;8731;50.364;8.958;2023-05-08T20:20:06;100515.25;;;18.20;78.57
17230;BME280;8731;50.364;8.958;2023-05-08T20:24:33;100519.53;;;17.69;83.10
17230;BME280;8731;50.364;8.958;2023-05-08T20:28:56;100512.56;;;17.32;86.49
17230;BME280;8731;50.364;8.958;2023-05-08T20:33:19;100516.38;;;17.62;84.11
17230;BME280;8731;50.364;8.958;2023-05-08T20:37:42;100515.03;;;17.78;82.44
17230;BME280;8731;50.364;8.958;2023-05-08T20:42:06;100508.69;;;17.50;84.67
17230;BME280;8731;50.364;8.958;2023-05-08T20:46:28;100506.84;;;17.36;86.09
17230;BME280;8731;50.364;8.958;2023-05-08T20:50:51;100504.97;;;17.70;82.31
17230;BME280;8731;50.364;8.958;2023-05-08T20:55:14;100507.94;;;17.39;85.06
17230;BME280;8731;50.364;8.958;2023-05-08T20:59:40;100506.97;;;17.62;82.87
17230;BME280;8731;50.364;8.958;2023-05-08T21:04:02;100502.72;;;17.74;81.82
17230;BME280;8731;50.364;8.958;2023-05-08T21:08:25;100511.69;;;17.68;83.03
17230;BME280;8731;50.364;8.958;2023-05-08T21:12:48;100506.41;;;17.66;82.99
17230;BME280;8731;50.364;8.958;2023-05-08T21:17:14;100505.47;;;17.41;85.30
17230;BME280;8731;50.364;8.958;2023-05-08T21:21:36;100502.16;;;17.18;87.16
17230;BME280;8731;50.364;8.958;2023-05-08T21:25:59;100499.22;;;17.26;86.34
17230;BME280;8731;50.364;8.958;2023-05-08T21:30:21;100495.91;;;17.15;87.50
17230;BME280;8731;50.364;8.958;2023-05-08T21:34:48;100489.22;;;16.82;90.62
17230;BME280;8731;50.364;8.958;2023-05-08T21:39:10;100482.50;;;17.07;87.74
17230;BME280;8731;50.364;8.958;2023-05-08T21:43:33;100480.34;;;17.13;86.41
17230;BME280;8731;50.364;8.958;2023-05-08T21:47:57;100489.41;;;17.20;85.04
17230;BME280;8731;50.364;8.958;2023-05-08T21:52:22;100487.84;;;17.10;85.48
17230;BME280;8731;50.364;8.958;2023-05-08T21:56:45;100480.72;;;17.06;85.45
17230;BME280;8731;50.364;8.958;2023-05-08T22:01:07;100472.91;;;16.81;86.95
17230;BME280;8731;50.364;8.958;2023-05-08T22:05:32;100476.69;;;16.86;86.35
17230;BME280;8731;50.364;8.958;2023-05-08T22:09:58;100475.78;;;16.74;86.87
17230;BME280;8731;50.364;8.958;2023-05-08T22:14:25;100478.84;;;16.23;93.76
17230;BME280;8731;50.364;8.958;2023-05-08T22:18:47;100469.50;;;16.47;90.26
17230;BME280;8731;50.364;8.958;2023-05-08T22:23:09;100466.47;;;16.41;90.99
17230;BME280;8731;50.364;8.958;2023-05-08T22:27:33;100466.47;;;16.41;90.41
17230;BME280;8731;50.364;8.958;2023-05-08T22:31:56;100457.28;;;16.21;92.03
17230;BME280;8731;50.364;8.958;2023-05-08T22:36:19;100447.94;;;16.45;89.49
17230;BME280;8731;50.364;8.958;2023-05-08T22:40:43;100443.22;;;16.51;88.87
17230;BME280;8731;50.364;8.958;2023-05-08T22:45:10;100441.31;;;16.14;92.46
17230;BME280;8731;50.364;8.958;2023-05-08T22:49:33;100431.44;;;16.08;92.75
17230;BME280;8731;50.364;8.958;2023-05-08T22:53:55;100430.09;;;16.02;94.11
17230;BME280;8731;50.364;8.958;2023-05-08T22:58:18;100422.53;;;16.15;92.63
17230;BME280;8731;50.364;8.958;2023-05-08T23:02:41;100418.16;;;15.90;95.21
17230;BME280;8731;50.364;8.958;2023-05-08T23:07:04;100412.69;;;15.98;95.18
17230;BME280;8731;50.364;8.958;2023-05-08T23:11:27;100411.13;;;16.00;94.07
17230;BME280;8731;50.364;8.958;2023-05-08T23:15:49;100402.44;;;16.21;91.39
17230;BME280;8731;50.364;8.958;2023-05-08T23:20:13;100400.75;;;16.21;90.76
17230;BME280;8731;50.364;8.958;2023-05-08T23:24:36;100396.06;;;16.27;89.35
17230;BME280;8731;50.364;8.958;2023-05-08T23:28:58;100389.91;;;15.90;93.79